createdAt,value
2023-01-05T00:02:24.898Z,9.46
2023-01-05T00:04:55.537Z,9.46
2023-01-05T00:07:26.066Z,9.46
2023-01-05T00:09:59.596Z,9.42
2023-01-05T00:12:48.932Z,9.38
2023-01-05T00:15:37.734Z,9.41
2023-01-05T00:18:32.116Z,9.50
2023-01-05T00:21:22.378Z,9.42
2023-01-05T00:23:53.383Z,9.38
2023-01-05T00:26:25.154Z,9.44
2023-01-05T00:28:56.257Z,9.60
2023-01-05T00:31:26.725Z,9.68
2023-01-05T00:34:00.078Z,9.66
2023-01-05T00:36:32.015Z,9.81
2023-01-05T00:39:02.441Z,9.72
2023-01-05T00:41:33.004Z,9.71
2023-01-05T00:44:03.347Z,9.78
2023-01-05T00:46:34.071Z,9.82
2023-01-05T00:49:04.683Z,9.81
2023-01-05T00:51:37.332Z,9.72
2023-01-05T00:54:09.382Z,9.86
2023-01-05T00:56:39.989Z,9.80
2023-01-05T00:59:13.859Z,9.76
2023-01-05T01:01:49.657Z,9.76
2023-01-05T01:04:21.697Z,9.70
2023-01-05T01:06:53.939Z,9.75
2023-01-05T01:09:26.601Z,9.70
2023-01-05T01:11:57.179Z,9.83
2023-01-05T01:14:31.373Z,9.78
2023-01-05T01:17:01.789Z,9.79
2023-01-05T01:19:32.503Z,9.76
2023-01-05T01:22:03.054Z,9.70
2023-01-05T01:24:34.704Z,9.68
2023-01-05T01:27:05.260Z,9.72
2023-01-05T01:29:37.016Z,9.60
2023-01-05T01:32:08.507Z,9.54
2023-01-05T01:34:40.646Z,9.58
2023-01-05T01:37:12.022Z,9.68
2023-01-05T01:39:43.702Z,9.62
2023-01-05T01:42:16.627Z,9.66
2023-01-05T01:44:59.107Z,9.49
2023-01-05T01:47:32.642Z,9.47
2023-01-05T01:50:11.599Z,9.49
2023-01-05T01:52:43.497Z,9.46
2023-01-05T01:55:14.373Z,9.58
2023-01-05T01:57:48.303Z,9.61
2023-01-05T02:00:19.877Z,9.66
2023-01-05T02:02:53.845Z,9.74
2023-01-05T02:05:27.335Z,9.85
2023-01-05T02:07:59.841Z,9.88
2023-01-05T02:10:40.316Z,9.82
2023-01-05T02:13:19.475Z,9.90
2023-01-05T02:15:58.947Z,9.91
2023-01-05T02:18:43.932Z,9.92
2023-01-05T02:21:39.938Z,9.84
2023-01-05T02:24:33.812Z,9.91
2023-01-05T02:27:30.580Z,9.88
2023-01-05T02:30:07.149Z,9.67
2023-01-05T02:33:05.850Z,9.83
2023-01-05T02:35:56.008Z,9.79
2023-01-05T02:38:49.015Z,9.76
2023-01-05T02:41:22.636Z,9.81
2023-01-05T02:43:54.914Z,9.85
2023-01-05T02:46:27.016Z,9.93
2023-01-05T02:49:00.051Z,9.88
2023-01-05T02:51:39.320Z,9.95
2023-01-05T02:54:16.794Z,9.93
2023-01-05T02:56:59.357Z,9.92
2023-01-05T02:59:45.093Z,9.98
2023-01-05T03:02:30.458Z,9.93
2023-01-05T03:05:10.326Z,9.87
2023-01-05T03:07:43.451Z,9.88
2023-01-05T03:10:33.705Z,9.86
2023-01-05T03:13:25.533Z,9.82
2023-01-05T03:15:59.976Z,9.92
2023-01-05T03:18:36.456Z,9.88
2023-01-05T03:21:07.376Z,9.94
2023-01-05T03:23:56.587Z,9.88
2023-01-05T03:26:45.063Z,9.98
2023-01-05T03:29:33.545Z,9.98
2023-01-05T03:32:33.102Z,9.92
2023-01-05T03:35:37.418Z,9.98
2023-01-05T03:38:18.263Z,9.98
2023-01-05T03:40:51.485Z,9.94
2023-01-05T03:43:23.390Z,9.98
2023-01-05T03:45:56.692Z,9.90
2023-01-05T03:48:28.991Z,9.88
2023-01-05T03:50:59.643Z,9.83
2023-01-05T03:53:30.084Z,9.82
2023-01-05T03:56:00.746Z,9.77
2023-01-05T03:58:31.101Z,9.68
2023-01-05T04:01:01.735Z,9.68
2023-01-05T04:03:32.800Z,9.70
2023-01-05T04:06:07.343Z,9.56
2023-01-05T04:08:37.909Z,9.55
2023-01-05T04:11:13.685Z,9.65
2023-01-05T04:13:44.203Z,9.69
2023-01-05T04:16:16.704Z,9.68
2023-01-05T04:18:48.662Z,9.60
2023-01-05T04:21:19.224Z,9.59
2023-01-05T04:23:49.645Z,9.60
2023-01-05T04:26:21.760Z,9.67
2023-01-05T04:28:52.387Z,9.40
2023-01-05T04:31:24.479Z,9.41
2023-01-05T04:33:56.971Z,9.26
2023-01-05T04:36:27.612Z,9.18
2023-01-05T04:38:58.277Z,9.23
2023-01-05T04:41:28.853Z,9.11
2023-01-05T04:43:59.359Z,9.22
2023-01-05T04:46:30.483Z,9.24
2023-01-05T04:49:01.083Z,9.34
2023-01-05T04:51:38.032Z,9.38
2023-01-05T04:54:04.520Z,9.36
2023-01-05T04:56:35.055Z,9.30
2023-01-05T04:59:06.466Z,9.28
2023-01-05T05:01:37.442Z,9.20
2023-01-05T05:04:08.039Z,9.15
2023-01-05T05:06:39.001Z,9.16
2023-01-05T05:09:09.518Z,9.14
2023-01-05T05:11:39.988Z,9.21
2023-01-05T05:14:10.477Z,9.20
2023-01-05T05:16:40.939Z,9.18
2023-01-05T05:19:13.039Z,9.16
2023-01-05T05:21:48.912Z,9.20
2023-01-05T05:24:23.105Z,9.28
2023-01-05T05:26:55.072Z,9.18
2023-01-05T05:29:27.025Z,9.20
2023-01-05T05:31:57.698Z,9.14
2023-01-05T05:34:30.414Z,9.10
2023-01-05T05:37:00.947Z,9.15
2023-01-05T05:39:31.427Z,9.14
2023-01-05T05:42:02.110Z,9.13
2023-01-05T05:44:35.104Z,9.06
2023-01-05T05:47:06.039Z,9.13
2023-01-05T05:49:37.505Z,9.13
2023-01-05T05:52:08.937Z,9.20
2023-01-05T05:54:39.371Z,9.12
2023-01-05T05:57:10.520Z,9.14
2023-01-05T05:59:42.507Z,9.07
2023-01-05T06:02:13.713Z,9.09
2023-01-05T06:04:45.392Z,8.92
2023-01-05T06:07:15.940Z,8.70
2023-01-05T06:09:47.140Z,8.67
2023-01-05T06:12:17.825Z,8.52
2023-01-05T06:14:48.386Z,8.38
2023-01-05T06:17:21.868Z,8.36
2023-01-05T06:19:52.651Z,8.22
2023-01-05T06:22:26.482Z,8.18
2023-01-05T06:24:58.299Z,8.12
2023-01-05T06:27:29.087Z,8.16
2023-01-05T06:30:00.739Z,8.08
2023-01-05T06:32:31.217Z,8.02
2023-01-05T06:35:01.761Z,8.02
2023-01-05T06:37:35.751Z,8.05
2023-01-05T06:40:13.280Z,8.09
2023-01-05T06:42:44.258Z,8.14
2023-01-05T06:45:17.651Z,8.34
2023-01-05T06:47:48.335Z,8.42
2023-01-05T06:50:20.458Z,8.49
2023-01-05T06:52:51.566Z,8.46
2023-01-05T06:55:21.976Z,8.46
2023-01-05T06:57:58.713Z,8.49
2023-01-05T07:00:26.139Z,8.54
2023-01-05T07:02:58.258Z,8.61
2023-01-05T07:05:29.283Z,8.64
2023-01-05T07:08:01.361Z,8.59
2023-01-05T07:10:35.582Z,8.60
2023-01-05T07:13:08.510Z,8.63
2023-01-05T07:15:40.073Z,8.72
2023-01-05T07:18:11.544Z,8.70
2023-01-05T07:20:43.770Z,8.62
2023-01-05T07:23:14.219Z,8.64
2023-01-05T07:25:44.661Z,8.68
2023-01-05T07:28:16.737Z,8.67
2023-01-05T07:30:52.505Z,8.60
2023-01-05T07:33:23.111Z,8.50
2023-01-05T07:35:54.631Z,8.54
2023-01-05T07:38:25.079Z,8.53
2023-01-05T07:40:57.362Z,8.51
2023-01-05T07:43:32.115Z,8.43
2023-01-05T07:46:04.257Z,8.46
2023-01-05T07:48:41.369Z,8.45
2023-01-05T07:51:14.497Z,8.44
2023-01-05T07:53:45.024Z,8.40
2023-01-05T07:56:15.791Z,8.36
2023-01-05T07:58:46.263Z,8.38
2023-01-05T08:01:20.356Z,8.36
2023-01-05T08:03:51.184Z,8.38
2023-01-05T08:06:22.515Z,8.48
2023-01-05T08:08:56.775Z,8.50
2023-01-05T08:11:28.805Z,8.58
2023-01-05T08:14:06.716Z,8.58
2023-01-05T08:16:37.466Z,8.61
2023-01-05T08:19:11.276Z,8.62
2023-01-05T08:21:40.182Z,8.66
2023-01-05T08:24:15.073Z,8.64
2023-01-05T08:26:48.703Z,8.63
2023-01-05T08:29:19.369Z,8.48
2023-01-05T08:31:51.271Z,8.50
2023-01-05T08:34:22.547Z,8.52
2023-01-05T08:36:54.233Z,8.57
2023-01-05T08:39:25.267Z,8.60
2023-01-05T08:42:02.035Z,8.51
2023-01-05T08:44:28.100Z,8.60
2023-01-05T08:46:58.682Z,8.61
2023-01-05T08:49:29.062Z,8.56
2023-01-05T08:51:59.483Z,8.46
2023-01-05T08:54:34.318Z,8.46
2023-01-05T08:57:05.172Z,8.48
2023-01-05T08:59:36.665Z,8.38
2023-01-05T09:02:09.565Z,8.34
2023-01-05T09:04:41.874Z,8.32
2023-01-05T09:07:13.775Z,8.32
2023-01-05T09:09:44.419Z,8.25
2023-01-05T09:12:17.425Z,8.21
2023-01-05T09:14:47.919Z,8.25
2023-01-05T09:17:18.534Z,8.39
2023-01-05T09:19:49.109Z,8.37
2023-01-05T09:22:21.444Z,8.48
2023-01-05T09:24:52.017Z,8.50
2023-01-05T09:27:22.624Z,8.51
2023-01-05T09:29:53.084Z,8.50
2023-01-05T09:32:26.195Z,8.42
2023-01-05T09:34:56.660Z,8.36
2023-01-05T09:37:27.330Z,8.35
2023-01-05T09:40:01.005Z,8.47
2023-01-05T09:42:35.431Z,8.66
2023-01-05T09:45:08.009Z,8.78
2023-01-05T09:47:41.749Z,9.77
2023-01-05T09:50:21.874Z,9.40
2023-01-05T09:52:57.778Z,9.22
2023-01-05T09:55:31.800Z,9.13
2023-01-05T09:58:17.262Z,9.13
2023-01-05T10:00:53.533Z,9.20
2023-01-05T10:06:00.810Z,9.20
2023-01-05T10:08:37.327Z,9.08
2023-01-05T10:11:34.993Z,9.07
2023-01-05T10:14:17.362Z,9.11
2023-01-05T10:16:53.681Z,9.16
2023-01-05T10:19:22.568Z,9.20
2023-01-05T10:22:10.993Z,9.29
2023-01-05T10:24:50.156Z,9.28
2023-01-05T10:27:44.826Z,9.27
2023-01-05T10:30:20.218Z,9.25
2023-01-05T10:33:03.890Z,9.22
2023-01-05T10:36:00.157Z,9.28
2023-01-05T10:38:35.804Z,9.22
2023-01-05T10:41:25.998Z,9.32
2023-01-05T10:44:00.270Z,9.26
2023-01-05T10:46:39.921Z,9.26
2023-01-05T10:49:03.258Z,9.25
2023-01-05T10:51:36.285Z,9.28
2023-01-05T10:54:09.699Z,9.34
2023-01-05T10:56:40.346Z,9.44
2023-01-05T10:59:14.834Z,9.32
2023-01-05T11:01:51.148Z,9.40
2023-01-05T11:04:33.349Z,9.39
2023-01-05T11:07:08.219Z,9.34
2023-01-05T11:09:45.970Z,9.46
2023-01-05T11:12:22.832Z,9.46
2023-01-05T11:14:58.762Z,9.34
2023-01-05T11:17:30.036Z,9.44
2023-01-05T11:20:03.588Z,9.42
2023-01-05T11:22:39.913Z,9.38
2023-01-05T11:25:19.676Z,9.31
2023-01-05T11:28:10.111Z,9.22
2023-01-05T11:30:58.591Z,9.21
2023-01-05T11:33:35.598Z,9.26
2023-01-05T11:36:07.085Z,9.22
2023-01-05T11:38:39.778Z,9.21
2023-01-05T11:41:12.696Z,9.24
2023-01-05T11:43:45.075Z,9.28
2023-01-05T11:46:16.668Z,9.34
2023-01-05T11:48:56.270Z,9.28
2023-01-05T11:51:41.790Z,9.22
2023-01-05T11:54:34.228Z,9.24
2023-01-05T11:57:19.801Z,9.09
2023-01-05T11:59:53.892Z,9.05
2023-01-05T12:02:45.768Z,9.00
2023-01-05T12:05:29.411Z,9.08
2023-01-05T12:08:12.044Z,9.30
2023-01-05T12:10:52.116Z,9.40
2023-01-05T12:13:42.204Z,9.45
2023-01-05T12:16:22.121Z,9.42
2023-01-05T12:18:58.407Z,9.41
2023-01-05T12:21:40.967Z,9.54
2023-01-05T12:24:30.525Z,9.58
2023-01-05T12:27:09.793Z,9.57
2023-01-05T12:35:39.706Z,9.38
2023-01-05T12:38:34.214Z,9.23
2023-01-05T12:41:19.309Z,9.20
2023-01-05T12:44:21.107Z,9.19
2023-01-05T12:47:16.241Z,9.17
2023-01-05T12:49:50.758Z,9.16
2023-01-05T12:52:28.580Z,9.08
2023-01-05T12:55:05.530Z,9.14
2023-01-05T12:57:39.122Z,9.15
2023-01-05T13:00:19.286Z,9.22
2023-01-05T13:02:56.284Z,9.18
2023-01-05T13:05:35.437Z,9.33
2023-01-05T13:08:27.546Z,9.24
2023-01-05T13:11:10.612Z,9.34
2023-01-05T13:13:57.797Z,9.40
2023-01-05T13:16:39.686Z,9.31
2023-01-05T13:19:38.263Z,9.14
2023-01-05T13:22:26.927Z,9.10
2023-01-05T13:25:06.651Z,9.09
2023-01-05T13:27:37.622Z,8.97
2023-01-05T13:30:14.167Z,8.98
2023-01-05T13:32:55.408Z,9.00
2023-01-05T13:35:31.946Z,9.00
2023-01-05T13:38:25.244Z,9.03
2023-01-05T13:41:11.062Z,8.94
2023-01-05T13:44:01.462Z,9.08
2023-01-05T13:46:57.896Z,9.08
2023-01-05T13:49:49.262Z,8.87
2023-01-05T13:52:49.125Z,8.74
2023-01-05T13:55:26.711Z,8.55
2023-01-05T13:57:57.701Z,8.50
2023-01-05T14:00:35.075Z,8.41
2023-01-05T14:03:12.141Z,8.32
2023-01-05T14:05:50.776Z,8.34
2023-01-05T14:08:30.191Z,8.43
2023-01-05T14:11:15.837Z,8.31
2023-01-05T14:14:05.252Z,8.24
2023-01-05T14:16:38.804Z,8.18
2023-01-05T14:19:28.772Z,8.11
2023-01-05T14:22:05.284Z,7.99
2023-01-05T14:24:41.550Z,7.97
2023-01-05T14:27:17.674Z,7.97
2023-01-05T14:29:58.086Z,7.86
2023-01-05T14:32:31.627Z,7.86
2023-01-05T14:35:14.235Z,7.82
2023-01-05T14:37:49.385Z,7.76
2023-01-05T14:40:42.391Z,7.78
2023-01-05T14:43:35.909Z,7.76
2023-01-05T14:46:18.402Z,7.80
2023-01-05T14:49:03.282Z,7.83
2023-01-05T14:51:37.674Z,7.78
2023-01-05T14:54:12.333Z,7.68
2023-01-05T14:56:45.962Z,7.57
2023-01-05T14:59:29.191Z,7.53
2023-01-05T15:02:03.485Z,7.52
2023-01-05T15:04:40.504Z,7.52
2023-01-05T15:07:44.561Z,7.50
2023-01-05T15:10:27.965Z,7.52
2023-01-05T15:13:28.703Z,7.51
2023-01-05T15:16:09.223Z,7.53
2023-01-05T15:19:03.124Z,7.46
2023-01-05T15:21:56.106Z,7.44
2023-01-05T15:24:56.895Z,7.40
2023-01-05T15:27:47.253Z,7.41
2023-01-05T15:30:49.510Z,7.37
2023-01-05T15:33:46.738Z,7.38
2023-01-05T15:36:33.499Z,7.36
2023-01-05T15:39:25.784Z,7.28
2023-01-05T15:42:01.240Z,7.28
2023-01-05T15:44:36.305Z,7.42
2023-01-05T15:47:11.987Z,7.26
2023-01-05T15:49:42.669Z,7.26
2023-01-05T15:52:35.183Z,7.22
2023-01-05T15:55:14.931Z,7.17
2023-01-05T15:57:55.634Z,7.19
2023-01-05T16:00:33.094Z,7.18
2023-01-05T16:03:05.592Z,7.11
2023-01-05T16:05:37.000Z,7.07
2023-01-05T16:08:13.381Z,7.10
2023-01-05T16:10:46.902Z,7.09
2023-01-05T16:13:20.195Z,7.04
2023-01-05T16:15:53.790Z,7.04
2023-01-05T16:18:27.296Z,7.01
2023-01-05T16:21:03.599Z,7.12
2023-01-05T16:23:40.584Z,7.07
2023-01-05T16:26:18.820Z,7.06
2023-01-05T16:28:49.249Z,7.12
2023-01-05T16:31:32.257Z,6.99
2023-01-05T16:34:05.970Z,6.99
2023-01-05T16:36:36.536Z,6.90
2023-01-05T16:39:20.395Z,6.92
2023-01-05T16:42:11.118Z,6.95
2023-01-05T16:44:43.172Z,7.00
2023-01-05T16:47:16.689Z,6.98
2023-01-05T16:49:57.614Z,7.05
2023-01-05T16:52:25.961Z,7.01
2023-01-05T16:55:19.955Z,6.93
2023-01-05T16:57:47.729Z,7.00
2023-01-05T17:00:34.387Z,6.92
2023-01-05T17:03:29.185Z,6.94
2023-01-05T17:06:01.799Z,6.95
2023-01-05T17:08:38.396Z,6.94
2023-01-05T17:11:12.538Z,6.88
2023-01-05T17:13:54.406Z,6.92
2023-01-05T17:16:25.468Z,6.92
2023-01-05T17:19:00.668Z,6.89
2023-01-05T17:21:33.083Z,6.94
2023-01-05T17:24:03.946Z,6.98
2023-01-05T17:26:37.333Z,6.88
2023-01-05T17:29:08.687Z,6.87
2023-01-05T17:31:39.619Z,6.79
2023-01-05T17:34:10.200Z,6.82
2023-01-05T17:36:41.282Z,6.84
2023-01-05T17:39:21.398Z,6.84
2023-01-05T17:41:52.100Z,6.83
2023-01-05T17:44:22.599Z,6.84
2023-01-05T17:46:55.423Z,6.82
2023-01-05T17:51:56.691Z,6.58
2023-01-05T17:54:27.279Z,6.54
2023-01-05T17:56:58.473Z,6.58
2023-01-05T17:59:29.143Z,6.63
2023-01-05T18:02:00.936Z,6.70
2023-01-05T18:04:33.005Z,6.72
2023-01-05T18:07:05.829Z,6.68
2023-01-05T18:09:37.953Z,6.67
2023-01-05T18:12:10.880Z,6.63
2023-01-05T18:14:43.003Z,6.58
2023-01-05T18:17:15.730Z,6.64
2023-01-05T18:19:47.909Z,6.64
2023-01-05T18:22:19.799Z,6.60
2023-01-05T18:24:50.698Z,6.58
2023-01-05T18:27:21.664Z,6.53
2023-01-05T18:29:53.618Z,6.44
2023-01-05T18:32:24.564Z,6.42
2023-01-05T18:34:55.414Z,6.40
2023-01-05T18:37:33.278Z,6.36
2023-01-05T18:40:05.384Z,6.42
2023-01-05T18:42:37.629Z,6.34
2023-01-05T18:45:19.741Z,6.21
2023-01-05T18:47:43.410Z,6.32
2023-01-05T18:50:15.015Z,6.27
2023-01-05T18:52:46.969Z,6.20
2023-01-05T18:55:19.195Z,6.15
2023-01-05T18:57:51.146Z,6.11
2023-01-05T19:00:23.778Z,6.17
2023-01-05T19:02:54.322Z,6.16
2023-01-05T19:05:26.029Z,6.20
2023-01-05T19:07:57.520Z,6.18
2023-01-05T19:10:31.073Z,6.18
2023-01-05T19:13:02.615Z,6.31
2023-01-05T19:15:38.530Z,6.22
2023-01-05T19:18:09.360Z,6.16
2023-01-05T19:20:39.996Z,6.12
2023-01-05T19:23:11.844Z,6.20
2023-01-05T19:25:44.447Z,6.15
2023-01-05T19:28:16.178Z,6.18
2023-01-05T19:30:47.553Z,6.13
2023-01-05T19:33:19.363Z,6.19
2023-01-05T19:35:51.778Z,6.14
2023-01-05T19:38:26.524Z,6.12
2023-01-05T19:40:58.732Z,6.14
2023-01-05T19:44:07.182Z,6.10
2023-01-05T19:46:37.758Z,6.12
2023-01-05T19:49:16.023Z,6.10
2023-01-05T19:51:47.014Z,6.10
2023-01-05T19:54:18.223Z,6.10
2023-01-05T19:56:50.928Z,6.13
2023-01-05T19:59:29.026Z,6.14
2023-01-05T20:02:04.075Z,6.11
2023-01-05T20:04:37.315Z,5.98
2023-01-05T20:07:10.362Z,5.97
2023-01-05T20:09:41.380Z,5.85
2023-01-05T20:12:15.390Z,5.66
2023-01-05T20:14:45.057Z,5.66
2023-01-05T20:17:15.813Z,5.58
2023-01-05T20:19:46.285Z,5.51
2023-01-05T20:22:17.805Z,5.48
2023-01-05T20:24:48.311Z,5.34
2023-01-05T20:27:19.581Z,5.31
2023-01-05T20:29:52.139Z,5.18
2023-01-05T20:32:46.890Z,5.25
2023-01-05T20:35:17.515Z,5.22
2023-01-05T20:37:48.724Z,5.25
2023-01-05T20:40:19.210Z,5.33
2023-01-05T20:42:52.498Z,5.36
2023-01-05T20:45:27.119Z,5.34
2023-01-05T20:47:59.755Z,5.29
2023-01-05T20:50:34.086Z,5.34
2023-01-05T20:53:07.132Z,5.36
2023-01-05T20:55:42.859Z,5.24
2023-01-05T20:58:15.131Z,5.23
2023-01-05T21:01:10.603Z,5.10
2023-01-05T21:03:22.710Z,5.08
2023-01-05T21:05:54.334Z,5.13
2023-01-05T21:08:26.781Z,5.12
2023-01-05T21:11:04.352Z,5.16
2023-01-05T21:13:34.757Z,5.18
2023-01-05T21:16:07.004Z,5.09
2023-01-05T21:18:38.758Z,5.01
2023-01-05T21:21:09.246Z,4.92
2023-01-05T21:23:41.086Z,5.10
2023-01-05T21:26:14.643Z,5.09
2023-01-05T21:28:45.422Z,4.96
2023-01-05T21:31:18.878Z,5.20
2023-01-05T21:33:50.973Z,5.20
2023-01-05T21:36:30.948Z,5.32
2023-01-05T21:39:05.811Z,5.40
2023-01-05T21:41:42.615Z,5.37
2023-01-05T21:44:17.910Z,5.36
2023-01-05T21:46:52.929Z,5.44
2023-01-05T21:49:26.192Z,5.36
2023-01-05T21:52:18.229Z,5.50
2023-01-05T21:55:06.413Z,5.52
2023-01-05T21:57:39.497Z,5.59
2023-01-05T22:00:12.629Z,5.62
2023-01-05T22:02:44.134Z,5.60
2023-01-05T22:05:14.873Z,5.63
2023-01-05T22:07:46.435Z,5.55
2023-01-05T22:10:17.936Z,5.76
2023-01-05T22:12:49.073Z,5.66
2023-01-05T22:15:21.241Z,5.62
2023-01-05T22:17:53.153Z,5.59
2023-01-05T22:20:23.840Z,5.36
2023-01-05T22:22:55.390Z,5.18
2023-01-05T22:25:29.224Z,5.06
2023-01-05T22:28:00.331Z,5.09
2023-01-05T22:30:32.589Z,5.07
2023-01-05T22:33:03.449Z,5.24
2023-01-05T22:35:34.029Z,5.12
2023-01-05T22:38:04.527Z,5.18
2023-01-05T22:40:35.126Z,4.98
2023-01-05T22:43:05.737Z,4.84
2023-01-05T22:45:36.595Z,4.75
2023-01-05T22:48:07.402Z,4.95
2023-01-05T22:50:37.918Z,4.71
2023-01-05T22:53:09.078Z,4.51
2023-01-05T22:55:43.186Z,4.48
2023-01-05T22:58:16.455Z,4.46
2023-01-05T23:00:47.604Z,4.35
2023-01-05T23:03:19.518Z,4.30
2023-01-05T23:05:50.001Z,4.38
2023-01-05T23:08:20.648Z,4.41
2023-01-05T23:10:51.082Z,4.44
2023-01-05T23:13:21.650Z,4.34
2023-01-05T23:15:56.674Z,4.30
2023-01-05T23:18:29.075Z,4.58
2023-01-05T23:21:02.959Z,4.49
2023-01-05T23:23:33.824Z,4.66
2023-01-05T23:26:06.511Z,4.58
2023-01-05T23:28:37.429Z,4.55
2023-01-05T23:31:10.982Z,4.38
2023-01-05T23:33:42.688Z,4.52
2023-01-05T23:36:15.687Z,4.62
2023-01-05T23:38:49.531Z,4.46
2023-01-05T23:41:20.751Z,4.47
2023-01-05T23:43:51.632Z,4.86
2023-01-05T23:46:23.704Z,4.85
2023-01-05T23:48:54.360Z,4.72
2023-01-05T23:51:24.781Z,4.82
2023-01-05T23:53:57.135Z,4.70
2023-01-05T23:56:31.050Z,4.82
2023-01-05T23:59:08.784Z,4.88
